Time;durP1;ratioP1;P1;durP2;ratioP2;P2;SDS_P1;SDS_P2;PMS_P1;PMS_P2;Temp;Humidity;BMP_temperature;BMP_pressure;BME280_temperature;BME280_humidity;BME280_pressure;Samples;Min_cycle;Max_cycle;Signal;HPM_P1;HPM_P2
2022/04/11 00:02:03;;;;;;;;;;;;;;;3.98;57.89;98195.31;12837777;23;20322;-78
2022/04/11 00:07:23;;;;;;;;;;;;;;;3.92;57.62;98189.19;12861904;23;19927;-78
2022/04/11 00:12:44;;;;;;;;;;;;;;;3.87;57.60;98201.13;12822417;23;20235;-78
2022/04/11 00:18:05;;;;;;;;;;;;;;;3.81;57.71;98186.69;12823975;23;19924;-78
2022/04/11 00:23:26;;;;;;;;;;;;;;;3.78;58.32;98190.53;12843787;23;19942;-78
2022/04/11 00:28:47;;;;;;;;;;;;;;;3.75;58.40;98181.28;12802604;23;19920;-78
2022/04/11 00:34:08;;;;;;;;;;;;;;;3.70;57.87;98180.16;12865519;23;20315;-78
2022/04/11 00:39:28;;;;;;;;;;;;;;;3.69;58.30;98184.19;12822748;23;19919;-78
2022/04/11 00:44:49;;;;;;;;;;;;;;;3.71;57.98;98183.66;12864241;23;19919;-78
2022/04/11 00:50:11;;;;;;;;;;;;;;;3.70;57.90;98182.19;12843747;23;20034;-78
2022/04/11 00:55:32;;;;;;;;;;;;;;;3.68;58.25;98182.72;12856070;23;19931;-78
2022/04/11 01:00:53;;;;;;;;;;;;;;;3.71;57.86;98184.41;12864008;23;19927;-78
2022/04/11 01:06:14;;;;;;;;;;;;;;;3.67;57.73;98178.47;12842896;23;19919;-78
2022/04/11 01:11:34;;;;;;;;;;;;;;;3.60;58.08;98184.66;12864715;23;19929;-77
2022/04/11 01:16:59;;;;;;;;;;;;;;;3.62;57.79;98186.88;12842644;23;20319;-78
2022/04/11 01:22:20;;;;;;;;;;;;;;;3.55;58.16;98184.78;12823320;23;19920;-78
2022/04/11 01:27:41;;;;;;;;;;;;;;;3.47;57.83;98195.00;12822672;23;19927;-78
2022/04/11 01:33:13;;;;;;;;;;;;;;;3.35;58.43;98192.47;12822327;23;20235;-78
2022/04/11 01:38:34;;;;;;;;;;;;;;;3.29;58.71;98193.91;12801815;23;20234;-78
2022/04/11 01:43:55;;;;;;;;;;;;;;;3.31;58.69;98196.84;12863708;23;20277;-78
2022/04/11 01:49:16;;;;;;;;;;;;;;;3.25;59.33;98201.75;12821294;23;19920;-78
2022/04/11 01:54:36;;;;;;;;;;;;;;;3.24;58.84;98201.00;12816439;23;19926;-78
2022/04/11 01:59:57;;;;;;;;;;;;;;;3.20;59.37;98208.13;12841757;23;19969;-78
2022/04/11 02:05:18;;;;;;;;;;;;;;;3.17;59.00;98205.16;12804262;23;19924;-78
2022/04/11 02:10:41;;;;;;;;;;;;;;;3.10;59.33;98207.84;12841745;23;19920;-78
2022/04/11 02:16:03;;;;;;;;;;;;;;;3.09;58.91;98204.34;12842572;23;19920;-78
2022/04/11 02:21:25;;;;;;;;;;;;;;;3.04;59.79;98212.72;12863771;23;19927;-78
2022/04/11 02:26:46;;;;;;;;;;;;;;;2.96;59.85;98211.88;12821398;23;19945;-78
2022/04/11 02:32:07;;;;;;;;;;;;;;;2.86;60.35;98215.06;12841081;23;19926;-78
2022/04/11 02:37:28;;;;;;;;;;;;;;;2.85;60.05;98207.31;12842122;23;20006;-78
2022/04/11 02:42:49;;;;;;;;;;;;;;;2.85;60.31;98216.34;12841816;23;19920;-78
2022/04/11 02:48:10;;;;;;;;;;;;;;;2.84;59.96;98211.34;12799728;23;19919;-78
2022/04/11 02:53:39;;;;;;;;;;;;;;;2.86;60.12;98215.06;12822593;23;19923;-78
2022/04/11 02:59:00;;;;;;;;;;;;;;;2.82;60.26;98213.91;12820287;23;19920;-78
2022/04/11 03:04:23;;;;;;;;;;;;;;;2.82;60.04;98211.16;12806806;23;19924;-78
2022/04/11 03:09:52;;;;;;;;;;;;;;;2.83;60.46;98209.88;12803068;23;19958;-78
2022/04/11 03:15:14;;;;;;;;;;;;;;;2.86;60.61;98217.81;12820368;23;20393;-78
2022/04/11 03:20:36;;;;;;;;;;;;;;;2.88;60.51;98212.50;12821173;23;20239;-78
2022/04/11 03:25:57;;;;;;;;;;;;;;;2.90;60.28;98217.50;12836858;23;19920;-78
2022/04/11 03:31:23;;;;;;;;;;;;;;;2.88;60.91;98218.03;12820303;23;19972;-78
2022/04/11 03:36:44;;;;;;;;;;;;;;;2.84;61.13;98222.38;12838930;23;20241;-78
2022/04/11 03:42:07;;;;;;;;;;;;;;;2.85;60.55;98221.09;12755338;23;20098;-78
2022/04/11 03:47:29;;;;;;;;;;;;;;;2.85;60.22;98208.06;12755841;23;19924;-78
2022/04/11 03:52:50;;;;;;;;;;;;;;;2.87;60.85;98213.03;12736186;23;19920;-77
2022/04/11 03:58:11;;;;;;;;;;;;;;;2.87;60.51;98216.53;12754515;23;19975;-77
2022/04/11 04:03:35;;;;;;;;;;;;;;;2.80;60.69;98221.97;12756132;23;19920;-78
2022/04/11 04:09:01;;;;;;;;;;;;;;;2.77;60.77;98229.28;12758278;23;19943;-78
2022/04/11 04:14:28;;;;;;;;;;;;;;;2.78;60.50;98230.00;12758228;23;20323;-78
2022/04/11 04:19:50;;;;;;;;;;;;;;;2.82;60.91;98230.44;12737666;23;19987;-78
2022/04/11 04:25:14;;;;;;;;;;;;;;;2.84;60.51;98228.63;12779654;23;19927;-78
2022/04/11 04:30:35;;;;;;;;;;;;;;;2.86;61.42;98226.09;12735677;23;19920;-78
2022/04/11 04:35:56;;;;;;;;;;;;;;;2.91;61.06;98219.00;12801644;23;19927;-78
2022/04/11 04:41:17;;;;;;;;;;;;;;;3.02;60.48;98227.03;12802549;23;19924;-78
2022/04/11 04:46:38;;;;;;;;;;;;;;;3.14;60.76;98224.78;12801834;23;19994;-78
2022/04/11 04:52:07;;;;;;;;;;;;;;;3.38;60.44;98229.31;12762442;23;19920;-78
2022/04/11 04:57:36;;;;;;;;;;;;;;;3.71;60.29;98231.34;12763017;23;19920;-78
2022/04/11 05:02:58;;;;;;;;;;;;;;;4.10;60.18;98223.41;12761428;23;19920;-78
2022/04/11 05:08:20;;;;;;;;;;;;;;;4.58;59.30;98238.53;12782141;23;19931;-78
2022/04/11 05:13:41;;;;;;;;;;;;;;;5.17;59.50;98230.38;12761237;23;19974;-78
2022/04/11 05:43:09;;;;;;;;;;;;;;;20.61;42.43;98247.03;12675440;23;19940;-88
2022/04/11 05:48:34;;;;;;;;;;;;;;;26.96;31.14;98250.63;12658649;23;20256;-89
2022/04/11 05:53:55;;;;;;;;;;;;;;;30.76;24.82;98256.19;12658081;23;19921;-85
2022/04/11 05:59:16;;;;;;;;;;;;;;;31.64;21.09;98259.25;12678309;23;19928;-88
2022/04/11 06:04:37;;;;;;;;;;;;;;;33.47;16.80;98251.34;12664074;23;20309;-87
2022/04/11 06:09:59;;;;;;;;;;;;;;;34.72;13.57;98246.91;12657854;23;19944;-87
2022/04/11 06:15:20;;;;;;;;;;;;;;;36.14;14.26;98254.44;12677755;23;19965;-92
2022/04/11 06:20:47;;;;;;;;;;;;;;;36.71;13.35;98258.66;12659244;23;19996;-90
2022/04/11 06:26:08;;;;;;;;;;;;;;;37.16;9.16;98255.16;12657421;23;20324;-90
2022/04/11 06:31:34;;;;;;;;;;;;;;;38.77;9.88;98255.50;12659720;23;19924;-90
2022/04/11 06:37:04;;;;;;;;;;;;;;;40.50;8.86;98268.16;12658624;23;20288;-90
2022/04/11 06:42:26;;;;;;;;;;;;;;;40.81;7.86;98252.84;12637120;23;19921;-89
2022/04/11 06:47:49;;;;;;;;;;;;;;;41.66;6.17;98253.91;12611615;23;20280;-90
2022/04/11 06:53:13;;;;;;;;;;;;;;;42.29;6.26;98260.22;12677117;23;19921;-90
2022/04/11 06:58:34;;;;;;;;;;;;;;;42.88;6.12;98273.25;12657617;23;19928;-89
2022/04/11 07:03:56;;;;;;;;;;;;;;;42.95;5.38;98268.47;12637039;23;19928;-88
2022/04/11 07:09:16;;;;;;;;;;;;;;;43.27;5.13;98263.72;12637677;23;19984;-90
2022/04/11 07:14:38;;;;;;;;;;;;;;;42.93;4.38;98254.63;12637093;23;19955;-90
2022/04/11 07:20:00;;;;;;;;;;;;;;;43.99;4.52;98261.00;12657272;23;19921;-90
2022/04/11 07:25:23;;;;;;;;;;;;;;;45.04;4.46;98273.72;12637467;23;19952;-91
2022/04/11 07:30:49;;;;;;;;;;;;;;;45.48;4.13;98266.47;12639325;23;19975;-90
2022/04/11 07:36:09;;;;;;;;;;;;;;;46.41;3.86;98264.63;12677021;23;19921;-89
2022/04/11 07:41:30;;;;;;;;;;;;;;;46.63;3.59;98266.03;12676022;23;19925;-90
2022/04/11 07:46:51;;;;;;;;;;;;;;;46.44;3.03;98262.97;12636232;23;19928;-90
2022/04/11 07:52:13;;;;;;;;;;;;;;;45.38;3.53;98264.19;12655979;23;19945;-89
2022/04/11 07:57:34;;;;;;;;;;;;;;;45.74;3.22;98260.34;12636207;23;20221;-89
2022/04/11 08:03:12;;;;;;;;;;;;;;;44.96;2.71;98271.28;12647519;23;19921;-90
2022/04/11 08:08:33;;;;;;;;;;;;;;;44.64;3.09;98255.66;12640758;23;19924;-89
2022/04/11 08:14:00;;;;;;;;;;;;;;;44.43;3.13;98262.78;12642986;23;19921;-90
2022/04/11 08:19:21;;;;;;;;;;;;;;;46.51;2.42;98260.97;12659636;23;19933;-90
2022/04/11 08:24:47;;;;;;;;;;;;;;;47.42;2.22;98268.44;12641426;23;19921;-88
2022/04/11 08:30:09;;;;;;;;;;;;;;;48.36;1.40;98261.38;12680562;23;19928;-88
2022/04/11 08:35:29;;;;;;;;;;;;;;;49.00;1.55;98276.22;12640227;23;19928;-89
2022/04/11 08:40:59;;;;;;;;;;;;;;;46.51;1.46;98260.97;12643480;23;19928;-88
2022/04/11 08:46:23;;;;;;;;;;;;;;;46.63;1.40;98265.31;12640266;23;19928;-88
2022/04/11 08:51:54;;;;;;;;;;;;;;;45.70;1.24;98257.69;12643596;23;20247;-89
2022/04/11 08:57:15;;;;;;;;;;;;;;;45.48;1.59;98248.78;12659720;23;19920;-89
2022/04/11 09:02:36;;;;;;;;;;;;;;;46.81;1.15;98257.41;12639478;23;19971;-87
2022/04/11 09:07:59;;;;;;;;;;;;;;;48.87;0.99;98255.06;12640392;23;19921;-88
2022/04/11 09:13:22;;;;;;;;;;;;;;;49.83;0.49;98244.91;12659450;23;19928;-88
2022/04/11 09:18:53;;;;;;;;;;;;;;;48.74;0.59;98248.72;12660065;23;19928;-88
2022/04/11 09:24:15;;;;;;;;;;;;;;;48.84;0.84;98244.22;12658599;23;19943;-87
2022/04/11 09:29:41;;;;;;;;;;;;;;;49.08;0.53;98242.28;12639120;23;19921;-87
2022/04/11 09:35:03;;;;;;;;;;;;;;;48.06;0.81;98237.78;12658772;23;19925;-89
2022/04/11 09:40:26;;;;;;;;;;;;;;;45.93;1.06;98233.97;12639060;23;19921;-88
2022/04/11 09:45:51;;;;;;;;;;;;;;;46.44;0.62;98222.34;12639542;23;19921;-88
2022/04/11 09:51:59;;;;;;;;;;;;;;;48.42;0.59;98223.09;12664193;23;19921;-88
2022/04/11 09:57:21;;;;;;;;;;;;;;;46.32;0.67;98216.56;12657896;23;19921;-88
2022/04/11 10:02:48;;;;;;;;;;;;;;;46.63;0.60;98212.19;12618072;23;19921;-87
2022/04/11 10:08:15;;;;;;;;;;;;;;;46.79;0.64;98202.13;12660849;23;19921;-86
2022/04/11 10:13:42;;;;;;;;;;;;;;;46.99;0.61;98191.81;12638253;23;19921;-88
2022/04/11 10:19:04;;;;;;;;;;;;;;;48.06;0.32;98190.44;12638277;23;19925;-86
2022/04/11 10:24:33;;;;;;;;;;;;;;;48.71;0.34;98183.03;12633230;23;19921;-87
2022/04/11 10:30:03;;;;;;;;;;;;;;;50.42;0.00;98173.84;12641642;23;19921;-87
2022/04/11 10:35:38;;;;;;;;;;;;;;;47.80;0.14;98173.19;12638249;23;20367;-89
2022/04/11 10:40:59;;;;;;;;;;;;;;;36.66;3.35;98165.03;12637869;23;19943;-89
2022/04/11 10:46:57;;;;;;;;;;;;;;;41.15;2.67;98160.47;12642638;23;19921;-88
2022/04/11 10:52:29;;;;;;;;;;;;;;;43.98;1.57;98150.13;12655158;23;19925;-89
2022/04/11 10:57:55;;;;;;;;;;;;;;;41.98;1.60;98140.16;12656704;23;20395;-88
2022/04/11 11:03:16;;;;;;;;;;;;;;;37.22;3.55;98129.81;12637410;23;19944;-91
2022/04/11 11:08:57;;;;;;;;;;;;;;;33.28;4.62;98131.56;12640618;23;20251;-90
2022/04/11 11:14:53;;;;;;;;;;;;;;;31.36;5.70;98124.63;12675975;23;19927;-88
2022/04/11 11:20:13;;;;;;;;;;;;;;;28.73;7.32;98116.22;12551227;23;19931;-87
2022/04/11 11:25:34;;;;;;;;;;;;;;;26.24;9.02;98113.81;12636664;23;19925;-88
2022/04/11 11:30:55;;;;;;;;;;;;;;;25.79;10.15;98109.72;12616232;23;19932;-87
2022/04/11 11:36:16;;;;;;;;;;;;;;;25.70;10.37;98100.31;12656288;23;19928;-87
2022/04/11 11:41:42;;;;;;;;;;;;;;;24.59;10.89;98099.94;12637009;23;19921;-88
2022/04/11 11:47:03;;;;;;;;;;;;;;;23.84;11.27;98107.06;12656311;23;19921;-86
2022/04/11 11:52:24;;;;;;;;;;;;;;;22.96;11.90;98102.19;12655644;23;19932;-88
2022/04/11 11:57:45;;;;;;;;;;;;;;;22.73;12.08;98092.34;12676826;23;20320;-87
2022/04/11 12:08:55;;;;;;;;;;;;;;;22.64;12.25;98084.28;12660078;23;20284;-86
2022/04/11 12:14:16;;;;;;;;;;;;;;;22.70;12.21;98079.47;12656588;23;19921;-88
2022/04/11 12:19:37;;;;;;;;;;;;;;;23.04;12.59;98082.44;12636359;23;20320;-88
2022/04/11 12:24:58;;;;;;;;;;;;;;;23.05;12.72;98063.25;12676248;23;19930;-89
2022/04/11 12:30:19;;;;;;;;;;;;;;;23.56;12.39;98065.13;12656491;23;20213;-87
2022/04/11 12:35:39;;;;;;;;;;;;;;;23.34;12.48;98056.06;12656024;23;19921;-89
2022/04/11 12:41:03;;;;;;;;;;;;;;;23.45;12.15;98062.72;12635830;23;19921;-88
2022/04/11 12:46:24;;;;;;;;;;;;;;;23.39;12.66;98049.06;12638895;23;19928;-85
2022/04/11 12:52:00;;;;;;;;;;;;;;;23.38;13.05;98047.63;12639581;23;19925;-88
2022/04/11 12:57:25;;;;;;;;;;;;;;;22.81;13.09;98035.63;12701765;23;19945;-89
2022/04/11 13:02:46;;;;;;;;;;;;;;;21.56;14.02;98028.06;12673162;23;19921;-88
2022/04/11 13:08:10;;;;;;;;;;;;;;;19.95;15.57;98025.00;12639318;23;19927;-89
2022/04/11 13:13:35;;;;;;;;;;;;;;;20.16;15.32;98021.47;12659087;23;20217;-90
2022/04/11 13:18:57;;;;;;;;;;;;;;;20.69;15.14;97999.84;12679018;23;19998;-90
2022/04/11 13:24:18;;;;;;;;;;;;;;;20.05;14.90;97997.00;12659588;23;19992;-90
2022/04/11 13:29:39;;;;;;;;;;;;;;;19.66;15.43;97986.44;12677621;23;19928;-89
2022/04/11 13:35:00;;;;;;;;;;;;;;;19.10;16.00;97989.34;12658022;23;19921;-89
2022/04/11 13:40:21;;;;;;;;;;;;;;;18.45;17.08;97981.13;12657672;23;19928;-90
2022/04/11 13:45:42;;;;;;;;;;;;;;;18.20;17.30;97962.44;12637891;23;19928;-89
2022/04/11 13:51:03;;;;;;;;;;;;;;;17.84;17.35;97955.28;12678956;23;20245;-89
2022/04/11 13:56:25;;;;;;;;;;;;;;;17.44;17.95;97950.03;12657788;23;19940;-92
2022/04/11 14:01:46;;;;;;;;;;;;;;;17.70;18.20;97946.94;12696116;23;19928;-91
2022/04/11 14:07:07;;;;;;;;;;;;;;;18.41;18.01;97949.88;12658191;23;19921;-90
2022/04/11 14:12:29;;;;;;;;;;;;;;;18.52;17.49;97946.06;12678604;23;19992;-90
2022/04/11 14:17:49;;;;;;;;;;;;;;;18.23;17.59;97954.78;12657841;23;20319;-88
2022/04/11 14:23:10;;;;;;;;;;;;;;;18.45;17.38;97952.88;12658269;23;20332;-89
2022/04/11 14:28:35;;;;;;;;;;;;;;;18.26;17.41;97951.41;12658156;23;19928;-87
2022/04/11 14:33:55;;;;;;;;;;;;;;;17.79;17.74;97940.28;12678611;23;19921;-90
2022/04/11 14:39:17;;;;;;;;;;;;;;;17.49;18.01;97930.47;12637642;23;19921;-89
2022/04/11 14:44:38;;;;;;;;;;;;;;;17.05;18.27;97927.13;12667054;23;19928;-87
2022/04/11 14:49:59;;;;;;;;;;;;;;;16.73;18.58;97921.47;12676947;23;19920;-88
2022/04/11 14:55:19;;;;;;;;;;;;;;;16.28;19.21;97908.06;12636750;23;19928;-87
2022/04/11 15:00:54;;;;;;;;;;;;;;;16.01;19.73;97908.16;12805247;23;19947;-84
2022/04/11 15:06:27;;;;;;;;;;;;;;;16.20;19.68;97904.84;12643479;23;19927;-86
2022/04/11 15:11:48;;;;;;;;;;;;;;;16.44;19.77;97913.03;12637315;23;19921;-84
2022/04/11 15:17:10;;;;;;;;;;;;;;;16.25;19.56;97900.91;12656409;23;20306;-86
2022/04/11 15:22:34;;;;;;;;;;;;;;;16.22;19.92;97901.44;12636922;23;19921;-87
2022/04/11 15:27:54;;;;;;;;;;;;;;;16.21;19.95;97906.34;12616361;23;20359;-87
2022/04/11 15:33:20;;;;;;;;;;;;;;;15.96;19.87;97893.16;12658306;23;19928;-86
2022/04/11 15:38:41;;;;;;;;;;;;;;;15.72;20.47;97889.88;12656004;23;20221;-84
2022/04/11 15:44:14;;;;;;;;;;;;;;;15.36;20.60;97885.22;12715231;23;19954;-82
2022/04/11 15:49:45;;;;;;;;;;;;;;;15.63;20.51;97881.66;12728925;23;19920;-82
2022/04/11 15:55:06;;;;;;;;;;;;;;;15.70;20.73;97878.53;12730907;23;19981;-82
2022/04/11 16:00:43;;;;;;;;;;;;;;;15.26;20.92;97873.44;12636003;23;19906;-80
2022/04/11 16:18:25;;;;;;;;;;;;;;;15.00;21.48;97870.72;12751463;23;19920;-78
2022/04/11 16:23:45;;;;;;;;;;;;;;;14.88;21.97;97872.91;12670635;23;19920;-78
2022/04/11 16:29:06;;;;;;;;;;;;;;;14.76;21.75;97872.97;12690544;23;19953;-78
2022/04/11 16:34:36;;;;;;;;;;;;;;;14.75;21.63;97867.97;12702752;23;19957;-79
2022/04/11 16:46:03;;;;;;;;;;;;;;;14.69;22.31;97870.47;12703261;23;19921;-77
2022/04/11 16:51:24;;;;;;;;;;;;;;;14.67;22.22;97867.53;12690628;23;19928;-79
2022/04/11 17:26:48;;;;;;;;;;;;;;;13.70;22.67;97866.41;12678250;23;20360;-79
2022/04/11 17:32:08;;;;;;;;;;;;;;;13.48;23.46;97868.66;12722819;23;19928;-82
2022/04/11 17:37:30;;;;;;;;;;;;;;;13.32;23.12;97874.06;12717486;23;19928;-84
2022/04/11 17:49:21;;;;;;;;;;;;;;;13.14;23.49;97878.56;12677984;23;20654;31
2022/04/11 18:06:48;;;;;;;;;;;;;;;12.61;25.11;97889.38;12687506;23;19952;-82
2022/04/11 18:12:09;;;;;;;;;;;;;;;12.33;25.83;97891.13;12719506;23;19912;-87
2022/04/11 18:17:31;;;;;;;;;;;;;;;12.22;25.92;97892.56;12689355;23;19920;-80
2022/04/11 18:22:52;;;;;;;;;;;;;;;12.10;26.36;97894.59;12671480;23;19973;-80
2022/04/11 18:33:53;;;;;;;;;;;;;;;11.94;27.05;97896.34;12719370;23;19929;-82
2022/04/11 18:39:18;;;;;;;;;;;;;;;11.86;27.22;97901.41;12735158;23;19927;-83
2022/04/11 18:55:02;;;;;;;;;;;;;;;11.60;27.86;97914.38;12754950;22;2419360;-79
2022/04/11 19:00:22;;;;;;;;;;;;;;;11.45;28.21;97926.69;12815648;23;19920;-83
2022/04/11 19:05:43;;;;;;;;;;;;;;;11.33;28.14;97937.03;12795804;23;19904;-85
2022/04/11 19:11:04;;;;;;;;;;;;;;;11.25;28.70;97931.63;12812353;23;19920;-89
2022/04/11 19:16:26;;;;;;;;;;;;;;;11.18;28.40;97938.88;12771199;23;19928;-83
2022/04/11 19:27:48;;;;;;;;;;;;;;;10.96;29.27;97940.13;12842621;23;19905;-85
2022/04/11 19:33:16;;;;;;;;;;;;;;;10.88;29.22;97940.31;12810039;23;19943;-84
2022/04/11 19:38:37;;;;;;;;;;;;;;;10.86;29.55;97942.22;12827713;23;19956;-85
2022/04/11 19:43:59;;;;;;;;;;;;;;;10.81;29.36;97941.22;12849305;23;19927;-85
2022/04/11 19:55:01;;;;;;;;;;;;;;;10.65;29.81;97947.75;12795547;23;19920;-80
2022/04/11 20:00:22;;;;;;;;;;;;;;;10.56;30.35;97938.78;12793143;23;19927;-84
2022/04/11 20:05:45;;;;;;;;;;;;;;;10.50;30.35;97935.56;12814032;23;19931;-87
2022/04/11 20:11:07;;;;;;;;;;;;;;;10.36;30.96;97937.34;12770194;23;19924;-86
2022/04/11 20:16:29;;;;;;;;;;;;;;;10.26;31.28;97933.84;12835390;23;19921;-84
2022/04/11 20:21:51;;;;;;;;;;;;;;;10.13;31.59;97937.03;12834801;23;19945;-86
2022/04/11 20:27:14;;;;;;;;;;;;;;;9.97;32.03;97931.78;12814662;23;19912;-87
2022/04/11 20:32:35;;;;;;;;;;;;;;;9.92;31.70;97937.63;12856328;23;19924;-84
2022/04/11 20:37:57;;;;;;;;;;;;;;;9.82;32.78;97936.88;12793581;23;19904;-86
2022/04/11 20:43:18;;;;;;;;;;;;;;;9.70;32.56;97945.81;12856682;23;19949;-83
2022/04/11 20:48:40;;;;;;;;;;;;;;;9.65;32.86;97934.94;12815546;23;19904;-81
2022/04/11 20:54:03;;;;;;;;;;;;;;;9.58;32.84;97933.06;12836271;23;19964;-81
2022/04/11 20:59:25;;;;;;;;;;;;;;;9.50;33.28;97941.53;12858194;23;19918;-86
2022/04/11 21:04:46;;;;;;;;;;;;;;;9.42;33.05;97941.66;12858088;23;19939;-86
2022/04/11 21:10:10;;;;;;;;;;;;;;;9.35;33.63;97942.53;12684971;23;19905;-87
2022/04/11 21:15:34;;;;;;;;;;;;;;;9.27;33.49;97941.19;12756438;23;19905;-85
2022/04/11 21:20:56;;;;;;;;;;;;;;;9.22;33.71;97951.28;12756158;23;19925;-85
2022/04/11 21:26:18;;;;;;;;;;;;;;;9.12;33.76;97947.72;12756269;23;19973;-87
2022/04/11 21:31:41;;;;;;;;;;;;;;;9.07;33.59;97951.50;12735590;23;19928;-85
2022/04/11 21:37:03;;;;;;;;;;;;;;;8.95;34.55;97956.16;12735940;23;19905;-86
2022/04/11 21:42:24;;;;;;;;;;;;;;;8.85;35.29;97940.13;12694870;23;19920;-86
2022/04/11 21:47:47;;;;;;;;;;;;;;;8.71;35.32;97944.63;12736012;23;19909;-85
2022/04/11 21:59:16;;;;;;;;;;;;;;;8.53;35.75;97938.38;12792272;23;19920;-86
2022/04/11 22:04:37;;;;;;;;;;;;;;;8.48;36.07;97933.06;12795342;23;19999;-83
2022/04/11 22:09:58;;;;;;;;;;;;;;;8.50;36.23;97936.75;12795443;23;19920;-86
2022/04/11 22:15:19;;;;;;;;;;;;;;;8.41;36.17;97933.91;12815536;23;19904;-84
2022/04/11 22:20:41;;;;;;;;;;;;;;;8.32;36.73;97926.94;12795383;23;19904;-84
2022/04/11 22:26:03;;;;;;;;;;;;;;;8.20;37.02;97920.41;12790394;23;19925;-86
2022/04/11 22:31:25;;;;;;;;;;;;;;;8.17;36.99;97916.00;12816029;23;19943;-85
2022/04/11 22:36:47;;;;;;;;;;;;;;;8.20;36.37;97915.59;12790809;23;19905;-83
2022/04/11 22:42:08;;;;;;;;;;;;;;;8.15;36.92;97922.13;12790690;23;19927;-83
2022/04/11 22:47:31;;;;;;;;;;;;;;;8.13;36.88;97926.81;12815833;23;19920;-85
2022/04/11 22:52:52;;;;;;;;;;;;;;;8.17;37.02;97927.84;12815771;23;19924;-85
2022/04/11 22:58:13;;;;;;;;;;;;;;;8.17;37.03;97927.13;12794836;23;19905;-86
2022/04/11 23:03:34;;;;;;;;;;;;;;;8.12;37.03;97930.91;12815192;23;19904;-86
2022/04/11 23:08:56;;;;;;;;;;;;;;;7.95;37.59;97931.63;12835969;23;19905;-86
2022/04/11 23:14:17;;;;;;;;;;;;;;;7.86;37.40;97926.72;12835897;23;19927;-86
2022/04/11 23:19:37;;;;;;;;;;;;;;;7.78;37.44;97929.59;12836134;23;19924;-84
2022/04/11 23:24:59;;;;;;;;;;;;;;;7.75;37.36;97928.69;12815588;23;19944;-85
2022/04/11 23:30:20;;;;;;;;;;;;;;;7.71;37.86;97930.41;12839111;23;19928;-86
2022/04/11 23:35:41;;;;;;;;;;;;;;;7.64;38.10;97929.19;12819722;23;19927;-85
2022/04/11 23:41:02;;;;;;;;;;;;;;;7.62;38.39;97931.78;12860437;23;19904;-85
2022/04/11 23:46:23;;;;;;;;;;;;;;;7.65;38.39;97927.88;12860937;23;19912;-86
2022/04/11 23:51:44;;;;;;;;;;;;;;;7.58;38.29;97942.56;12819211;23;20384;-84
2022/04/11 23:57:04;;;;;;;;;;;;;;;7.49;38.79;97940.44;12839365;23;19911;-82
